createdAt,value
2018-09-25T00:01:33.699Z,74.60
2018-09-25T00:04:09.110Z,74.90
2018-09-25T00:06:44.569Z,75.20
2018-09-25T00:09:19.763Z,74.80
2018-09-25T00:11:55.320Z,74.80
2018-09-25T00:14:30.757Z,74.90
2018-09-25T00:17:05.892Z,74.70
2018-09-25T00:19:41.183Z,74.90
2018-09-25T00:22:16.572Z,74.70
2018-09-25T00:24:51.818Z,74.70
2018-09-25T00:27:26.946Z,74.80
2018-09-25T00:30:02.083Z,74.90
2018-09-25T00:32:37.496Z,74.80
2018-09-25T00:35:19.731Z,74.80
2018-09-25T00:37:55.246Z,74.80
2018-09-25T00:40:30.717Z,74.90
2018-09-25T00:43:06.035Z,75.00
2018-09-25T00:45:47.819Z,74.90
2018-09-25T00:48:23.225Z,74.80
2018-09-25T00:50:58.529Z,74.90
2018-09-25T00:53:33.930Z,75.10
2018-09-25T00:56:09.389Z,75.00
2018-09-25T00:58:44.843Z,75.10
2018-09-25T01:01:20.281Z,75.30
2018-09-25T01:03:55.462Z,75.10
2018-09-25T01:06:30.958Z,75.30
2018-09-25T01:09:06.191Z,75.30
2018-09-25T01:11:41.544Z,75.30
2018-09-25T01:14:16.775Z,75.40
2018-09-25T01:16:52.040Z,75.30
2018-09-25T01:19:27.329Z,75.40
2018-09-25T01:22:02.732Z,75.40
2018-09-25T01:24:38.079Z,75.50
2018-09-25T01:27:13.529Z,75.50
2018-09-25T01:29:48.898Z,75.60
2018-09-25T01:32:24.546Z,75.70
2018-09-25T01:34:59.891Z,76.00
2018-09-25T01:37:35.058Z,76.20
2018-09-25T01:40:16.990Z,76.10
2018-09-25T01:42:52.182Z,76.20
2018-09-25T01:45:27.517Z,76.10
2018-09-25T01:48:02.892Z,75.80
2018-09-25T01:50:38.189Z,75.90
2018-09-25T01:53:13.379Z,75.90
2018-09-25T01:55:48.814Z,76.00
2018-09-25T01:58:24.041Z,76.10
2018-09-25T02:00:59.378Z,76.30
2018-09-25T02:03:34.683Z,76.10
2018-09-25T02:06:09.935Z,75.90
2018-09-25T02:08:45.152Z,75.90
2018-09-25T02:11:20.327Z,76.00
2018-09-25T02:13:55.629Z,75.90
2018-09-25T02:16:31.051Z,76.00
2018-09-25T02:19:06.351Z,76.10
2018-09-25T02:21:41.982Z,76.40
2018-09-25T02:24:17.429Z,76.50
2018-09-25T02:33:44.146Z,76.80
2018-09-25T02:36:19.562Z,76.70
2018-09-25T02:38:55.051Z,76.80
2018-09-25T02:41:30.624Z,76.70
2018-09-25T02:44:05.937Z,76.60
2018-09-25T02:46:41.651Z,76.30
2018-09-25T02:49:17.179Z,76.40
2018-09-25T02:51:52.586Z,76.40
2018-09-25T02:54:27.778Z,76.70
2018-09-25T02:57:03.020Z,76.60
2018-09-25T02:59:38.413Z,76.70
2018-09-25T03:02:13.985Z,76.90
2018-09-25T03:04:49.306Z,77.00
2018-09-25T03:07:24.604Z,77.20
2018-09-25T03:10:00.237Z,77.20
2018-09-25T03:12:35.542Z,77.20
2018-09-25T03:15:10.972Z,77.20
2018-09-25T03:17:46.358Z,77.40
2018-09-25T03:20:21.713Z,77.50
2018-09-25T03:22:57.149Z,77.60
2018-09-25T03:25:32.470Z,77.60
2018-09-25T03:28:07.745Z,77.50
2018-09-25T03:30:43.071Z,77.60
2018-09-25T03:33:18.249Z,77.60
2018-09-25T03:35:54.235Z,77.90
2018-09-25T03:38:29.630Z,78.10
2018-09-25T03:41:04.929Z,78.10
2018-09-25T03:43:40.160Z,77.70
2018-09-25T03:46:15.697Z,78.30
2018-09-25T03:48:50.995Z,79.30
2018-09-25T03:51:26.269Z,78.40
2018-09-25T03:54:01.422Z,78.30
2018-09-25T03:56:36.520Z,78.30
2018-09-25T03:59:11.795Z,78.20
2018-09-25T04:01:47.012Z,78.10
2018-09-25T04:04:22.237Z,77.80
2018-09-25T04:06:57.629Z,77.60
2018-09-25T04:09:32.937Z,77.60
2018-09-25T04:12:08.226Z,77.70
2018-09-25T04:14:43.611Z,77.70
2018-09-25T04:17:18.905Z,77.90
2018-09-25T04:19:54.369Z,77.90
2018-09-25T04:22:30.292Z,77.90
2018-09-25T04:25:05.693Z,77.90
2018-09-25T04:27:40.993Z,77.80
2018-09-25T04:30:23.205Z,77.90
2018-09-25T04:32:58.739Z,78.10
2018-09-25T04:35:34.815Z,78.20
2018-09-25T04:43:10.072Z,78.70
2018-09-25T04:45:45.320Z,78.20
2018-09-25T04:48:21.469Z,78.40
2018-09-25T04:50:56.841Z,78.40
2018-09-25T04:53:32.265Z,78.40
2018-09-25T04:56:07.440Z,78.60
2018-09-25T04:58:42.662Z,78.90
2018-09-25T05:01:17.810Z,79.20
2018-09-25T05:03:53.157Z,79.60
2018-09-25T05:06:28.557Z,79.20
2018-09-25T05:09:03.959Z,79.00
2018-09-25T05:11:39.350Z,79.00
2018-09-25T05:14:14.780Z,79.10
2018-09-25T05:16:50.156Z,79.20
2018-09-25T05:19:25.565Z,79.10
2018-09-25T05:22:00.944Z,78.90
2018-09-25T05:24:36.393Z,79.10
2018-09-25T05:27:11.799Z,79.10
2018-09-25T05:29:47.209Z,79.10
2018-09-25T05:32:22.617Z,79.20
2018-09-25T05:34:58.771Z,79.40
2018-09-25T05:37:34.277Z,79.70
2018-09-25T05:40:09.871Z,79.50
2018-09-25T05:42:45.270Z,80.00
2018-09-25T05:45:20.662Z,80.40
2018-09-25T05:47:55.891Z,80.30
2018-09-25T05:50:31.273Z,80.40
2018-09-25T05:53:07.018Z,80.30
2018-09-25T05:55:42.486Z,80.20
2018-09-25T05:58:17.930Z,80.30
2018-09-25T06:00:53.276Z,81.00
2018-09-25T06:03:28.713Z,80.70
2018-09-25T06:06:03.950Z,80.70
2018-09-25T06:08:39.294Z,81.20
2018-09-25T06:11:14.531Z,81.20
2018-09-25T06:13:49.889Z,81.40
2018-09-25T06:16:25.102Z,81.40
2018-09-25T06:19:00.294Z,81.80
2018-09-25T06:21:35.782Z,81.80
2018-09-25T06:24:11.166Z,82.40
2018-09-25T06:26:46.617Z,81.70
2018-09-25T06:29:21.892Z,81.60
2018-09-25T06:31:57.750Z,81.80
2018-09-25T06:34:33.323Z,82.00
2018-09-25T06:37:08.761Z,81.90
2018-09-25T06:39:44.110Z,81.70
2018-09-25T06:42:19.382Z,82.00
2018-09-25T06:44:54.869Z,82.50
2018-09-25T06:47:30.412Z,82.60
2018-09-25T06:50:05.693Z,82.70
2018-09-25T06:52:41.172Z,83.00
2018-09-25T06:55:16.658Z,82.90
2018-09-25T06:57:51.979Z,83.40
2018-09-25T07:00:27.388Z,84.00
2018-09-25T07:03:02.948Z,84.40
2018-09-25T07:05:38.360Z,84.60
2018-09-25T07:08:13.993Z,84.90
2018-09-25T07:10:49.349Z,84.90
2018-09-25T07:13:31.448Z,84.90
2018-09-25T07:16:06.838Z,85.40
2018-09-25T07:18:42.313Z,85.20
2018-09-25T07:21:17.721Z,85.70
2018-09-25T07:23:53.060Z,86.00
2018-09-25T07:26:28.534Z,86.20
2018-09-25T07:29:03.846Z,86.50
2018-09-25T07:31:39.271Z,87.20
2018-09-25T07:34:14.751Z,87.40
2018-09-25T07:40:33.582Z,88.00
2018-09-25T07:43:30.696Z,88.90
2018-09-25T07:46:26.858Z,87.90
2018-09-25T07:49:13.178Z,86.70
2018-09-25T08:17:47.386Z,81.70
2018-09-25T08:20:22.366Z,80.90
2018-09-25T08:22:57.449Z,80.80
2018-09-25T08:25:32.610Z,80.70
2018-09-25T08:28:07.569Z,80.50
2018-09-25T08:30:42.626Z,80.00
2018-09-25T08:33:17.561Z,79.40
2018-09-25T08:35:52.494Z,79.20
2018-09-25T08:38:27.550Z,78.40
2018-09-25T08:41:02.628Z,78.30
2018-09-25T08:43:37.850Z,78.60
2018-09-25T08:46:13.302Z,77.70
2018-09-25T08:48:48.413Z,77.30
2018-09-25T08:51:23.345Z,76.90
2018-09-25T08:53:58.439Z,76.30
2018-09-25T08:56:33.550Z,76.00
2018-09-25T08:59:08.668Z,75.50
2018-09-25T09:01:43.815Z,74.90
2018-09-25T09:04:18.735Z,74.50
2018-09-25T09:06:53.868Z,74.00
2018-09-25T09:09:29.026Z,73.80
2018-09-25T09:12:04.712Z,73.40
2018-09-25T09:14:40.150Z,72.90
2018-09-25T09:17:15.962Z,72.80
2018-09-25T09:19:51.477Z,72.40
2018-09-25T09:28:01.727Z,71.80
2018-09-25T10:19:48.994Z,61.00
2018-09-25T10:26:11.292Z,60.40
2018-09-25T10:29:13.083Z,59.90
2018-09-25T10:44:27.263Z,58.70
2018-09-25T10:53:23.238Z,57.50
2018-09-25T10:55:58.645Z,57.30
2018-09-25T10:58:34.015Z,56.90
2018-09-25T11:01:09.386Z,56.00
2018-09-25T11:03:44.854Z,55.60
2018-09-25T11:06:20.230Z,55.80
2018-09-25T11:08:55.560Z,55.50
2018-09-25T11:11:30.879Z,55.60
2018-09-25T11:14:06.629Z,54.60
2018-09-25T11:16:43.933Z,54.70
2018-09-25T11:19:19.819Z,55.20
2018-09-25T11:21:55.235Z,55.50
2018-09-25T11:24:31.626Z,54.50
2018-09-25T11:27:07.143Z,54.70
2018-09-25T11:29:42.899Z,54.90
2018-09-25T11:32:18.375Z,55.40
2018-09-25T11:34:53.616Z,55.00
2018-09-25T11:37:29.029Z,54.20
2018-09-25T11:40:04.650Z,54.50
2018-09-25T11:42:40.151Z,54.40
2018-09-25T11:45:15.632Z,54.00
2018-09-25T11:47:51.089Z,54.10
2018-09-25T11:50:26.534Z,53.90
2018-09-25T11:53:01.894Z,54.00
2018-09-25T13:19:27.063Z,49.50
2018-09-25T13:22:02.318Z,50.10
2018-09-25T13:24:37.428Z,49.80
2018-09-25T13:27:12.680Z,49.70
2018-09-25T13:29:49.883Z,49.60
2018-09-25T13:32:24.998Z,49.60
2018-09-25T13:35:01.924Z,49.60
2018-09-25T13:37:37.294Z,49.70
2018-09-25T13:40:12.933Z,49.80
2018-09-25T13:42:48.220Z,50.20
2018-09-25T13:45:23.352Z,50.10
2018-09-25T13:47:58.432Z,50.20
2018-09-25T13:50:33.597Z,50.00
2018-09-25T13:53:08.854Z,50.10
2018-09-25T13:55:44.254Z,50.20
2018-09-25T13:58:19.394Z,50.40
2018-09-25T14:00:54.511Z,50.50
2018-09-25T14:03:29.640Z,50.70
2018-09-25T14:06:05.064Z,50.50
2018-09-25T14:08:40.314Z,50.50
2018-09-25T14:11:15.570Z,50.10
2018-09-25T14:13:50.889Z,50.30
2018-09-25T14:16:26.050Z,50.20
2018-09-25T14:19:01.255Z,49.90
2018-09-25T14:21:36.342Z,49.80
2018-09-25T14:24:11.539Z,49.60
2018-09-25T14:26:46.727Z,49.40
2018-09-25T14:29:22.118Z,49.20
2018-09-25T14:31:58.992Z,49.00
2018-09-25T14:34:35.557Z,48.70
2018-09-25T14:37:11.854Z,47.80
2018-09-25T14:39:47.074Z,47.00
2018-09-25T14:42:22.932Z,46.80
2018-09-25T14:44:58.144Z,47.10
2018-09-25T14:47:33.231Z,47.40
2018-09-25T14:50:08.618Z,47.40
2018-09-25T14:52:43.910Z,47.20
2018-09-25T14:55:19.173Z,47.60
2018-09-25T14:57:54.563Z,46.90
2018-09-25T15:00:29.859Z,46.50
2018-09-25T15:03:09.920Z,47.00
2018-09-25T15:05:45.275Z,46.70
2018-09-25T15:08:20.388Z,47.00
2018-09-25T15:10:55.390Z,47.00
2018-09-25T15:13:30.724Z,46.70
2018-09-25T15:16:05.923Z,45.90
2018-09-25T15:18:47.071Z,45.60
2018-09-25T15:21:22.370Z,45.40
2018-09-25T15:23:57.709Z,46.10
2018-09-25T15:26:33.920Z,45.80
2018-09-25T15:29:09.114Z,46.10
2018-09-25T15:31:46.663Z,46.20
2018-09-25T15:34:22.106Z,45.20
2018-09-25T15:36:57.370Z,44.90
2018-09-25T15:39:40.415Z,45.00
2018-09-25T15:47:43.652Z,45.30
2018-09-25T15:50:44.127Z,44.90
2018-09-25T15:53:30.070Z,44.90
2018-09-25T15:56:15.938Z,44.80
2018-09-25T15:59:00.197Z,44.70
2018-09-25T16:01:46.434Z,45.00
2018-09-25T16:04:21.614Z,45.00
2018-09-25T16:06:56.736Z,44.60
2018-09-25T16:09:31.689Z,45.20
2018-09-25T16:12:06.680Z,44.70
2018-09-25T16:14:52.989Z,45.20
2018-09-25T16:17:32.308Z,45.20
2018-09-25T16:20:07.439Z,45.30
2018-09-25T16:22:45.021Z,45.30
2018-09-25T16:25:31.604Z,45.10
2018-09-25T16:29:03.447Z,45.00
2018-09-25T16:31:38.699Z,45.20
2018-09-25T16:34:28.790Z,45.40
2018-09-25T16:37:14.939Z,45.00
2018-09-25T16:39:51.669Z,45.20
2018-09-25T16:42:35.487Z,45.90
2018-09-25T16:45:13.294Z,45.40
2018-09-25T16:51:11.226Z,45.90
2018-09-25T19:35:38.818Z,55.50
2018-09-25T21:53:42.546Z,60.40
2018-09-25T21:56:17.720Z,60.30
2018-09-25T21:58:53.026Z,60.20
2018-09-25T22:08:19.413Z,59.90
2018-09-25T22:10:54.587Z,59.60
2018-09-25T22:13:29.990Z,59.60
2018-09-25T22:16:05.447Z,59.50
2018-09-25T22:18:40.557Z,59.70
2018-09-25T22:21:15.833Z,60.40
2018-09-25T22:23:51.069Z,60.50
2018-09-25T22:26:32.887Z,59.90
2018-09-25T22:29:08.195Z,59.90
2018-09-25T22:31:43.590Z,59.90
2018-09-25T22:34:18.881Z,59.90
2018-09-25T22:36:54.230Z,59.90
2018-09-25T22:39:29.896Z,60.00
2018-09-25T22:42:06.105Z,60.00
2018-09-25T22:44:47.966Z,60.20
2018-09-25T22:47:23.309Z,60.20
2018-09-25T22:49:58.508Z,60.20
2018-09-25T22:52:33.837Z,60.20
2018-09-25T22:55:09.138Z,60.40
2018-09-25T22:57:44.520Z,60.50
2018-09-25T23:00:26.519Z,60.70
2018-09-25T23:03:01.878Z,60.90
2018-09-25T23:05:37.126Z,60.80
2018-09-25T23:08:12.569Z,61.10
2018-09-25T23:10:47.920Z,61.20
2018-09-25T23:13:23.241Z,61.40
2018-09-25T23:15:58.521Z,61.40
2018-09-25T23:18:33.889Z,61.40
2018-09-25T23:21:15.618Z,61.40
2018-09-25T23:23:50.984Z,61.70
2018-09-25T23:26:32.845Z,61.60
2018-09-25T23:29:08.210Z,61.20
2018-09-25T23:31:43.941Z,61.80
2018-09-25T23:34:19.358Z,62.40
2018-09-25T23:36:54.657Z,62.10
2018-09-25T23:39:29.047Z,62.20
2018-09-25T23:42:09.924Z,62.30
2018-09-25T23:44:44.927Z,62.30
2018-09-25T23:47:22.020Z,62.40
2018-09-25T23:49:59.656Z,62.40
2018-09-25T23:52:40.420Z,62.50
2018-09-25T23:55:15.638Z,62.50
2018-09-25T23:57:54.434Z,62.70
